createdAt,value
2024-01-21T05:53:24.807Z,-15.32
2024-01-21T05:55:52.901Z,-15.15
2024-01-21T05:58:20.552Z,-15.02
2024-01-21T06:00:48.337Z,-14.99
2024-01-21T06:03:16.205Z,-15.25
2024-01-21T06:05:43.965Z,-15.01
2024-01-21T06:08:11.894Z,-15.01
2024-01-21T06:10:39.602Z,-15.02
2024-01-21T06:13:07.330Z,-14.97
2024-01-21T06:15:35.255Z,-14.87
2024-01-21T06:18:03.033Z,-14.78
2024-01-21T06:20:30.857Z,-14.72
2024-01-21T06:22:59.152Z,-14.74
2024-01-21T06:25:26.926Z,-14.72
2024-01-21T06:27:54.615Z,-14.72
2024-01-21T06:30:24.376Z,-14.76
2024-01-21T06:32:59.541Z,-14.97
2024-01-21T06:35:31.271Z,-14.78
2024-01-21T06:37:59.392Z,-14.64
2024-01-21T06:40:27.122Z,-14.53
2024-01-21T06:42:54.823Z,-14.40
2024-01-21T06:45:22.784Z,-14.31
2024-01-21T06:47:51.707Z,-14.23
2024-01-21T06:50:20.478Z,-14.18
2024-01-21T06:52:48.353Z,-14.14
2024-01-21T06:55:16.095Z,-14.10
2024-01-21T06:57:43.998Z,-14.18
2024-01-21T07:00:13.035Z,-13.98
2024-01-21T07:02:40.625Z,-13.83
2024-01-21T07:05:09.099Z,-13.68
2024-01-21T07:07:36.892Z,-13.70
2024-01-21T07:10:04.863Z,-13.68
2024-01-21T07:12:32.495Z,-13.62
2024-01-21T07:15:00.368Z,-13.53
2024-01-21T07:17:27.990Z,-13.43
2024-01-21T07:19:55.826Z,-13.35
2024-01-21T07:22:23.475Z,-13.24
2024-01-21T07:24:51.168Z,-13.52
2024-01-21T07:27:18.912Z,-12.97
2024-01-21T07:29:46.714Z,-13.06
2024-01-21T07:32:14.274Z,-12.75
2024-01-21T07:34:42.154Z,-12.66
2024-01-21T07:37:09.917Z,-12.44
2024-01-21T07:39:37.545Z,-12.22
2024-01-21T07:42:05.476Z,-12.02
2024-01-21T07:44:33.206Z,-11.82
2024-01-21T07:47:00.764Z,-11.62
2024-01-21T07:49:28.486Z,-11.37
2024-01-21T07:51:56.263Z,-11.18
2024-01-21T07:54:23.969Z,-11.04
2024-01-21T07:56:51.505Z,-10.83
2024-01-21T07:59:19.321Z,-10.69
2024-01-21T08:01:47.017Z,-10.59
2024-01-21T08:04:15.156Z,-10.48
2024-01-21T08:06:43.310Z,-10.38
2024-01-21T08:09:11.031Z,-10.26
2024-01-21T08:11:38.700Z,-10.19
2024-01-21T08:14:06.678Z,-10.12
2024-01-21T08:16:34.268Z,-10.03
2024-01-21T08:19:15.346Z,-9.93
2024-01-21T08:21:44.128Z,-9.83
2024-01-21T08:24:12.798Z,-9.71
2024-01-21T08:26:41.403Z,-9.58
2024-01-21T08:29:09.174Z,-9.45
2024-01-21T08:31:44.256Z,-9.30
2024-01-21T08:34:12.737Z,-9.29
2024-01-21T08:36:46.122Z,-9.36
2024-01-21T08:39:14.219Z,-9.36
2024-01-21T08:41:42.337Z,-9.36
2024-01-21T08:44:10.269Z,-9.50
2024-01-21T08:46:39.258Z,-9.23
2024-01-21T08:49:07.134Z,-9.13
2024-01-21T08:51:36.044Z,-9.05
2024-01-21T08:54:04.433Z,-8.97
2024-01-21T08:56:33.891Z,-8.87
2024-01-21T08:59:01.866Z,-8.69
2024-01-21T09:01:30.349Z,-8.62
2024-01-21T09:03:59.465Z,-8.48
2024-01-21T09:06:27.358Z,-8.33
2024-01-21T09:08:56.336Z,-8.24
2024-01-21T09:11:24.935Z,-8.18
2024-01-21T09:13:52.699Z,-8.11
2024-01-21T09:16:21.312Z,-8.01
2024-01-21T09:18:53.528Z,-7.91
2024-01-21T09:21:27.448Z,-7.77
2024-01-21T09:24:06.378Z,-7.58
2024-01-21T09:26:36.377Z,-7.44
2024-01-21T09:29:05.024Z,-7.39
2024-01-21T09:31:34.413Z,-7.18
2024-01-21T09:34:02.731Z,-7.09
2024-01-21T09:36:30.758Z,-7.02
2024-01-21T09:38:58.527Z,-6.96
2024-01-21T09:41:51.707Z,-6.90
2024-01-21T09:44:32.317Z,-6.84
2024-01-21T09:47:11.864Z,-6.96
2024-01-21T09:49:43.634Z,-6.70
2024-01-21T09:52:17.158Z,-6.63
2024-01-21T09:55:05.673Z,-6.55
2024-01-21T09:58:00.885Z,-6.50
2024-01-21T10:00:38.536Z,-6.39
2024-01-21T10:06:18.525Z,-6.26
2024-01-21T10:08:59.598Z,-6.18
2024-01-21T10:11:38.517Z,-6.10
2024-01-21T10:14:12.188Z,-6.03
2024-01-21T10:16:51.254Z,-5.96
2024-01-21T10:19:49.010Z,-5.89
2024-01-21T10:22:33.683Z,-5.89
2024-01-21T10:28:12.873Z,-5.86
2024-01-21T10:30:48.162Z,-6.02
2024-01-21T10:36:08.769Z,-6.16
2024-01-21T10:38:53.047Z,-6.20
2024-01-21T10:41:35.380Z,-6.42
2024-01-21T10:44:11.286Z,-6.33
2024-01-21T10:46:46.243Z,-6.29
2024-01-21T10:49:21.721Z,-6.37
2024-01-21T10:51:58.189Z,-6.26
2024-01-21T10:54:40.182Z,-6.20
2024-01-21T10:57:08.841Z,-6.18
2024-01-21T10:59:42.600Z,-6.23
2024-01-21T11:02:14.554Z,-6.22
2024-01-21T11:04:49.645Z,-6.25
2024-01-21T11:07:20.775Z,-6.44
2024-01-21T11:09:51.115Z,-6.41
2024-01-21T11:12:19.958Z,-6.21
2024-01-21T11:14:49.131Z,-6.18
2024-01-21T11:17:21.321Z,-6.21
2024-01-21T11:19:56.785Z,-6.08
2024-01-21T11:22:27.231Z,-6.05
2024-01-21T11:24:57.858Z,-6.04
2024-01-21T11:27:29.406Z,-6.02
2024-01-21T11:29:59.396Z,-6.00
2024-01-21T11:32:30.709Z,-5.97
2024-01-21T11:35:18.024Z,-6.13
2024-01-21T11:37:53.798Z,-6.12
2024-01-21T11:40:21.786Z,-5.88
2024-01-21T11:42:51.820Z,-5.86
2024-01-21T11:45:20.883Z,-5.83
2024-01-21T11:47:48.810Z,-5.82
2024-01-21T11:50:19.470Z,-5.79
2024-01-21T11:52:47.602Z,-5.75
2024-01-21T11:55:22.481Z,-5.70
2024-01-21T11:57:50.368Z,-5.67
2024-01-21T12:00:18.315Z,-5.68
2024-01-21T12:02:47.894Z,-5.73
2024-01-21T12:05:19.832Z,-5.74
2024-01-21T12:07:48.250Z,-5.74
2024-01-21T12:10:16.230Z,-5.74
2024-01-21T12:12:44.025Z,-5.72
2024-01-21T12:15:11.980Z,-5.69
2024-01-21T12:17:39.774Z,-5.83
2024-01-21T12:20:09.110Z,-5.67
2024-01-21T12:22:38.677Z,-5.63
2024-01-21T12:25:09.966Z,-5.67
2024-01-21T12:27:37.921Z,-5.73
2024-01-21T12:30:12.729Z,-5.76
2024-01-21T12:32:52.969Z,-5.78
2024-01-21T12:35:24.314Z,-5.74
2024-01-21T12:37:52.230Z,-5.71
2024-01-21T12:40:20.039Z,-5.67
2024-01-21T12:42:47.997Z,-5.64
2024-01-21T12:45:15.852Z,-5.67
2024-01-21T12:47:43.522Z,-5.71
2024-01-21T12:50:11.728Z,-5.74
2024-01-21T12:52:39.464Z,-5.74
2024-01-21T12:55:08.403Z,-5.76
2024-01-21T12:57:36.050Z,-5.79
2024-01-21T13:00:05.857Z,-5.81
2024-01-21T13:02:33.517Z,-5.88
2024-01-21T13:05:01.200Z,-5.96
2024-01-21T13:07:29.386Z,-6.06
2024-01-21T13:09:58.709Z,-6.16
2024-01-21T13:12:27.196Z,-6.28
2024-01-21T13:14:56.880Z,-6.39
2024-01-21T13:17:25.163Z,-6.48
2024-01-21T13:19:53.246Z,-6.59
2024-01-21T13:22:21.168Z,-6.69
2024-01-21T13:24:49.076Z,-6.79
2024-01-21T13:27:28.728Z,-6.86
2024-01-21T13:30:16.935Z,-6.92
2024-01-21T13:32:44.938Z,-6.94
2024-01-21T13:35:13.135Z,-6.98
2024-01-21T13:37:41.793Z,-6.99
2024-01-21T13:40:10.318Z,-7.00
2024-01-21T13:42:39.187Z,-7.02
2024-01-21T13:45:09.977Z,-7.17
2024-01-21T13:47:38.910Z,-7.15
2024-01-21T13:50:06.934Z,-7.30
2024-01-21T13:52:34.969Z,-7.47
2024-01-21T13:55:06.723Z,-7.62
2024-01-21T13:57:34.563Z,-7.82
2024-01-21T14:00:02.331Z,-7.88
2024-01-21T14:02:32.605Z,-8.02
2024-01-21T14:05:00.850Z,-8.14
2024-01-21T14:07:28.431Z,-8.26
2024-01-21T14:09:58.216Z,-8.43
2024-01-21T14:12:26.251Z,-8.56
2024-01-21T14:14:54.102Z,-8.65
2024-01-21T14:17:26.231Z,-8.71
2024-01-21T14:19:54.712Z,-8.81
2024-01-21T14:22:23.038Z,-8.93
2024-01-21T14:24:52.388Z,-9.03
2024-01-21T14:27:20.610Z,-9.14
2024-01-21T14:29:57.381Z,-9.18
2024-01-21T14:32:26.359Z,-9.24
2024-01-21T14:34:53.975Z,-9.32
2024-01-21T14:37:22.358Z,-9.41
2024-01-21T14:39:51.088Z,-9.57
2024-01-21T14:42:18.905Z,-9.67
2024-01-21T14:44:46.574Z,-9.83
2024-01-21T14:47:14.871Z,-10.00
2024-01-21T14:49:42.569Z,-10.09
2024-01-21T14:52:10.286Z,-10.14
2024-01-21T14:54:38.801Z,-10.16
2024-01-21T14:57:06.695Z,-10.23
2024-01-21T14:59:35.355Z,-10.32
2024-01-21T15:02:03.920Z,-10.39
2024-01-21T15:04:33.732Z,-10.42
2024-01-21T15:07:01.670Z,-10.44
2024-01-21T15:09:29.563Z,-10.43
2024-01-21T15:11:57.284Z,-10.42
2024-01-21T15:14:33.139Z,-10.38
2024-01-21T15:17:00.977Z,-10.33
2024-01-21T15:19:28.658Z,-10.34
2024-01-21T15:21:56.872Z,-10.31
2024-01-21T15:24:24.843Z,-10.30
2024-01-21T15:26:53.291Z,-10.51
2024-01-21T15:29:20.947Z,-10.41
2024-01-21T15:31:48.680Z,-10.38
2024-01-21T15:34:16.365Z,-10.33
2024-01-21T15:36:44.149Z,-10.39
2024-01-21T15:39:12.767Z,-10.42
2024-01-21T15:41:41.412Z,-10.48
2024-01-21T15:44:09.519Z,-10.47
2024-01-21T15:46:37.710Z,-10.49
2024-01-21T15:49:05.395Z,-10.58
2024-01-21T15:51:33.767Z,-10.66
2024-01-21T15:54:01.606Z,-10.82
2024-01-21T15:56:30.931Z,-10.96
2024-01-21T15:59:01.564Z,-11.19
2024-01-21T16:01:29.966Z,-11.26
2024-01-21T16:03:58.884Z,-11.26
2024-01-21T16:06:27.149Z,-11.28
2024-01-21T16:08:55.771Z,-11.33
2024-01-21T16:11:23.809Z,-11.32
2024-01-21T16:13:52.493Z,-11.25
2024-01-21T16:16:20.291Z,-11.21
2024-01-21T16:18:48.112Z,-11.15
2024-01-21T16:21:16.378Z,-10.91
2024-01-21T16:23:44.634Z,-10.82
2024-01-21T16:26:12.700Z,-10.63
2024-01-21T16:28:41.105Z,-10.61
2024-01-21T16:31:09.337Z,-10.61
2024-01-21T16:33:36.974Z,-10.58
2024-01-21T16:36:05.002Z,-10.55
2024-01-21T16:38:32.758Z,-10.56
2024-01-21T16:41:00.420Z,-10.54
2024-01-21T16:43:28.381Z,-10.48
2024-01-21T16:45:56.280Z,-10.43
2024-01-21T16:48:25.380Z,-10.40
2024-01-21T16:50:58.290Z,-10.37
2024-01-21T16:53:30.990Z,-10.32
2024-01-21T16:56:01.193Z,-10.30
2024-01-21T16:58:29.776Z,-10.29
2024-01-21T17:01:01.253Z,-10.56
2024-01-21T17:03:30.126Z,-10.38
2024-01-21T17:05:58.326Z,-10.27
2024-01-21T17:08:26.256Z,-10.22
2024-01-21T17:11:11.890Z,-10.18
2024-01-21T17:13:40.705Z,-11.23
2024-01-21T17:16:09.341Z,-10.12
2024-01-21T17:18:50.920Z,-10.14
2024-01-21T17:21:18.909Z,-9.93
2024-01-21T17:23:46.904Z,-9.98
2024-01-21T17:26:16.201Z,-9.80
2024-01-21T17:28:45.971Z,-9.76
2024-01-21T17:31:13.634Z,-9.72
2024-01-21T17:33:43.348Z,-9.68
2024-01-21T17:36:14.197Z,-9.65
2024-01-21T17:38:42.049Z,-9.82
2024-01-21T17:41:09.857Z,-9.64
2024-01-21T17:43:38.135Z,-9.62
2024-01-21T17:46:09.475Z,-9.74
2024-01-21T17:48:37.447Z,-9.65
2024-01-21T17:51:05.878Z,-9.69
2024-01-21T17:53:35.127Z,-9.72
2024-01-21T17:56:03.093Z,-9.76
2024-01-21T17:58:31.037Z,-9.80
2024-01-21T18:01:00.034Z,-9.85
2024-01-21T18:03:28.012Z,-9.93
2024-01-21T18:05:55.850Z,-9.98
2024-01-21T18:08:23.702Z,-10.07
2024-01-21T18:10:52.948Z,-10.14
2024-01-21T18:13:20.662Z,-10.18
2024-01-21T18:15:48.367Z,-10.22
2024-01-21T18:18:16.172Z,-10.26
